Empire State — WDE4431 — position and weather

sailwx.info

Track history (hours):
 
Tides and Currents Weather Stations Pressure Air Temp Water Temp Dewpoint Dewpoint Depression Visibility Wind Speed Wind Dir Waves Ship Positions

Empire State

Owner: Crowley Petroleum Services, Jacksonville, FL. More information available from US FCC via Universal Licensing System and Coast Guard Vessel Documentation Center.

Last reported at 2016-Sep-28 08:32 UTC. Time now 2016-Sep-29 03:18 UTC.
Position N 33°45' W 118°17'.

Length 183 m; draft 9.6 m.

Type: Military. MMSI: 367353080.

Date/timePositionNaut miles runAvg speedWind from/ knotsBaromVisibWave heightAir tempDewpointWater temp
2016-Sep-28 08:32N 33°45' W 118°17'0 0.0
2016-Sep-28 02:08N 33°45' W 118°17'0 0.0
2016-Sep-27 23:32N 33°45' W 118°17'27 3.0
2016-Sep-27 14:34N 33°37' W 118°48'1413.6
2016-Sep-27 13:33N 33°38' W 119°04'4213.4
2016-Sep-27 10:23N 33°38' W 119°55'13613.8
2016-Sep-27 00:34N 34°37' W 122°23'5513.9
2016-Sep-26 20:34N 35°20' W 123°05'7615.1
2016-Sep-26 15:33N 36°34' W 123°26'2814.0
2016-Sep-26 13:33N 37°02' W 123°28'2914.3
2016-Sep-26 11:33N 37°27' W 123°09'3110.2
2016-Sep-26 08:33N 37°46' W 122°39'26 1.5
2016-Sep-25 15:31N 38°04' W 122°15'0 0.0
2016-Sep-25 14:31N 38°04' W 122°15'0 0.0
2016-Sep-25 12:31N 38°04' W 122°15'0 0.0
2016-Sep-25 11:31N 38°04' W 122°15'0 0.0
2016-Sep-25 10:31N 38°04' W 122°15'0 0.0
2016-Sep-25 09:25N 38°04' W 122°15'0 0.0
2016-Sep-25 07:25N 38°04' W 122°15'0 0.0
2016-Sep-23 19:29N 38°04' W 122°15'14 7.4
2016-Sep-23 17:34N 37°52' W 122°25'7 7.0
2016-Sep-23 16:32N 37°45' W 122°21'0 0.0
2016-Sep-23 15:32N 37°45' W 122°21'0 0.1
2016-Sep-23 13:32N 37°45' W 122°21'0 0.0
2016-Sep-23 09:32N 37°45' W 122°21'0 0.1
2016-Sep-23 06:32N 37°45' W 122°21'0 0.0
2016-Sep-23 04:32N 37°45' W 122°21'0 0.0
2016-Sep-23 03:33N 37°45' W 122°21'0 0.0
2016-Sep-23 02:32N 37°45' W 122°21'0 0.1
2016-Sep-23 01:32N 37°45' W 122°21'0 0.2
2016-Sep-23 00:32N 37°45' W 122°21'0 0.0
2016-Sep-22 23:32N 37°45' W 122°21'0 0.0
2016-Sep-22 20:32N 37°45' W 122°21'0 0.0
2016-Sep-22 12:32N 37°45' W 122°21'0 0.0
2016-Sep-22 04:32N 37°45' W 122°21'0 0.0
2016-Sep-22 03:33N 37°45' W 122°21'0 0.1
2016-Sep-22 00:32N 37°45' W 122°21'0 0.1
2016-Sep-21 23:32N 37°45' W 122°21'0 0.0
2016-Sep-21 22:32N 37°45' W 122°21'0 0.0
2016-Sep-21 19:32N 37°45' W 122°21'13 4.5
2016-Sep-21 16:33N 37°46' W 122°38'57 8.1
2016-Sep-21 09:33N 37°44' W 123°50'1414.4
2016-Sep-21 08:33N 37°53' W 124°03'4414.6
2016-Sep-21 05:33N 38°28' W 124°37'3014.9
2016-Sep-21 03:33N 38°54' W 124°56'1514.5
2016-Sep-21 02:33N 39°07' W 125°05'34214.2
2016-Sep-20 02:33N 44°46' W 126°01'20713.5
2016-Sep-19 11:17N 48°12' W 125°34'2313.2
2016-Sep-19 09:33N 48°26' W 125°06'2411.9
2016-Sep-19 07:33N 48°27' W 124°31'1515.4
2016-Sep-19 06:33N 48°21' W 124°09'4314.4
2016-Sep-19 03:32N 48°13' W 123°05'1514.7
2016-Sep-19 02:32N 48°09' W 122°43'2713.6
2016-Sep-19 00:34N 47°45' W 122°26'12 2.4
2016-Sep-18 19:30N 47°34' W 122°32'0 0.0
2016-Sep-18 15:30N 47°34' W 122°32'0 0.0
2016-Sep-18 14:33N 47°34' W 122°32'0 0.0
2016-Sep-18 10:30N 47°34' W 122°32'0 0.0
2016-Sep-18 09:33N 47°34' W 122°32'  
Track history (hours):
 
Tides and Currents Weather Stations Pressure Air Temp Water Temp Dewpoint Dewpoint Depression Visibility Wind Speed Wind Dir Waves Ship Positions

Empire State

Owner: Crowley Petroleum Services, Jacksonville, FL. More information available from US FCC via Universal Licensing System and Coast Guard Vessel Documentation Center.

Last reported at 2016-Sep-28 08:32 UTC. Time now 2016-Sep-29 03:18 UTC.
Position N 33°45' W 118°17'.

Length 183 m; draft 9.6 m.

Type: Military. MMSI: 367353080.

Date/timePositionNaut miles runAvg speedWind from/ knotsBaromVisibWave heightAir tempDewpointWater temp
2016-Sep-28 08:32N 33°45' W 118°17'0 0.0
2016-Sep-28 02:08N 33°45' W 118°17'0 0.0
2016-Sep-27 23:32N 33°45' W 118°17'27 3.0
2016-Sep-27 14:34N 33°37' W 118°48'1413.6
2016-Sep-27 13:33N 33°38' W 119°04'4213.4
2016-Sep-27 10:23N 33°38' W 119°55'13613.8
2016-Sep-27 00:34N 34°37' W 122°23'5513.9
2016-Sep-26 20:34N 35°20' W 123°05'7615.1
2016-Sep-26 15:33N 36°34' W 123°26'2814.0
2016-Sep-26 13:33N 37°02' W 123°28'2914.3
2016-Sep-26 11:33N 37°27' W 123°09'3110.2
2016-Sep-26 08:33N 37°46' W 122°39'26 1.5
2016-Sep-25 15:31N 38°04' W 122°15'0 0.0
2016-Sep-25 14:31N 38°04' W 122°15'0 0.0
2016-Sep-25 12:31N 38°04' W 122°15'0 0.0
2016-Sep-25 11:31N 38°04' W 122°15'0 0.0
2016-Sep-25 10:31N 38°04' W 122°15'0 0.0
2016-Sep-25 09:25N 38°04' W 122°15'0 0.0
2016-Sep-25 07:25N 38°04' W 122°15'0 0.0
2016-Sep-23 19:29N 38°04' W 122°15'14 7.4
2016-Sep-23 17:34N 37°52' W 122°25'7 7.0
2016-Sep-23 16:32N 37°45' W 122°21'0 0.0
2016-Sep-23 15:32N 37°45' W 122°21'0 0.1
2016-Sep-23 13:32N 37°45' W 122°21'0 0.0
2016-Sep-23 09:32N 37°45' W 122°21'0 0.1
2016-Sep-23 06:32N 37°45' W 122°21'0 0.0
2016-Sep-23 04:32N 37°45' W 122°21'0 0.0
2016-Sep-23 03:33N 37°45' W 122°21'0 0.0
2016-Sep-23 02:32N 37°45' W 122°21'0 0.1
2016-Sep-23 01:32N 37°45' W 122°21'0 0.2
2016-Sep-23 00:32N 37°45' W 122°21'0 0.0
2016-Sep-22 23:32N 37°45' W 122°21'0 0.0
2016-Sep-22 20:32N 37°45' W 122°21'0 0.0
2016-Sep-22 12:32N 37°45' W 122°21'0 0.0
2016-Sep-22 04:32N 37°45' W 122°21'0 0.0
2016-Sep-22 03:33N 37°45' W 122°21'0 0.1
2016-Sep-22 00:32N 37°45' W 122°21'0 0.1
2016-Sep-21 23:32N 37°45' W 122°21'0 0.0
2016-Sep-21 22:32N 37°45' W 122°21'0 0.0
2016-Sep-21 19:32N 37°45' W 122°21'13 4.5
2016-Sep-21 16:33N 37°46' W 122°38'57 8.1
2016-Sep-21 09:33N 37°44' W 123°50'1414.4
2016-Sep-21 08:33N 37°53' W 124°03'4414.6
2016-Sep-21 05:33N 38°28' W 124°37'3014.9
2016-Sep-21 03:33N 38°54' W 124°56'1514.5
2016-Sep-21 02:33N 39°07' W 125°05'34214.2
2016-Sep-20 02:33N 44°46' W 126°01'20713.5
2016-Sep-19 11:17N 48°12' W 125°34'2313.2
2016-Sep-19 09:33N 48°26' W 125°06'2411.9
2016-Sep-19 07:33N 48°27' W 124°31'1515.4
2016-Sep-19 06:33N 48°21' W 124°09'4314.4
2016-Sep-19 03:32N 48°13' W 123°05'1514.7
2016-Sep-19 02:32N 48°09' W 122°43'2713.6
2016-Sep-19 00:34N 47°45' W 122°26'12 2.4
2016-Sep-18 19:30N 47°34' W 122°32'0 0.0
2016-Sep-18 15:30N 47°34' W 122°32'0 0.0
2016-Sep-18 14:33N 47°34' W 122°32'0 0.0
2016-Sep-18 10:30N 47°34' W 122°32'0 0.0
2016-Sep-18 09:33N 47°34' W 122°32'  

Dump ship's entire track history